createdAt,value
2022-08-23T00:01:21.260Z,19.70
2022-08-23T00:03:53.879Z,19.70
2022-08-23T00:06:23.477Z,19.70
2022-08-23T00:08:53.214Z,19.70
2022-08-23T00:11:32.473Z,19.80
2022-08-23T00:14:02.583Z,19.80
2022-08-23T00:16:30.836Z,19.80
2022-08-23T00:18:59.375Z,19.80
2022-08-23T00:21:29.345Z,19.80
2022-08-23T00:23:57.830Z,19.70
2022-08-23T00:26:26.133Z,19.70
2022-08-23T00:28:55.492Z,19.80
2022-08-23T00:31:23.489Z,19.70
2022-08-23T00:33:51.622Z,19.80
2022-08-23T00:36:19.635Z,19.80
2022-08-23T00:38:47.704Z,19.80
2022-08-23T00:41:15.872Z,19.90
2022-08-23T00:44:01.350Z,19.90
2022-08-23T00:47:02.395Z,20.00
2022-08-23T00:49:32.280Z,20.20
2022-08-23T00:52:07.256Z,20.40
2022-08-23T00:54:37.521Z,20.60
2022-08-23T00:57:12.000Z,20.60
2022-08-23T00:59:40.518Z,20.60
2022-08-23T01:02:10.595Z,20.60
2022-08-23T01:04:42.044Z,20.70
2022-08-23T01:07:14.256Z,20.80
2022-08-23T01:09:44.508Z,20.80
2022-08-23T01:12:18.517Z,20.80
2022-08-23T01:14:57.168Z,20.70
2022-08-23T01:17:35.254Z,20.70
2022-08-23T01:20:07.578Z,20.80
2022-08-23T01:22:43.574Z,20.90
2022-08-23T01:25:17.532Z,20.90
2022-08-23T01:27:46.526Z,20.70
2022-08-23T01:30:20.554Z,20.30
2022-08-23T01:32:51.839Z,20.30
2022-08-23T01:37:55.416Z,20.10
2022-08-23T01:40:25.026Z,20.30
2022-08-23T01:42:53.248Z,20.30
2022-08-23T01:45:22.320Z,19.90
2022-08-23T01:47:51.115Z,19.70
2022-08-23T01:50:20.048Z,19.70
2022-08-23T01:52:48.361Z,19.60
2022-08-23T01:55:20.052Z,19.70
2022-08-23T01:57:54.403Z,19.60
2022-08-23T02:00:26.625Z,19.70
2022-08-23T02:02:55.718Z,19.70
2022-08-23T02:05:23.977Z,19.70
2022-08-23T02:07:52.153Z,19.80
2022-08-23T02:10:21.972Z,19.80
2022-08-23T02:12:52.854Z,19.60
2022-08-23T02:15:23.193Z,19.40
2022-08-23T02:17:51.347Z,19.50
2022-08-23T02:20:19.698Z,19.30
2022-08-23T02:22:47.757Z,19.30
2022-08-23T02:25:15.774Z,19.30
2022-08-23T02:27:44.287Z,19.40
2022-08-23T02:30:15.502Z,19.50
2022-08-23T02:32:44.270Z,19.40
2022-08-23T02:35:13.563Z,19.40
2022-08-23T02:37:41.701Z,19.50
2022-08-23T02:40:11.499Z,19.60
2022-08-23T02:42:39.714Z,19.70
2022-08-23T02:45:09.719Z,19.90
2022-08-23T02:47:46.733Z,20.00
2022-08-23T02:50:21.340Z,20.00
2022-08-23T02:52:50.525Z,19.80
2022-08-23T02:55:18.891Z,19.90
2022-08-23T02:57:47.230Z,20.00
2022-08-23T03:00:18.928Z,19.90
2022-08-23T03:02:48.498Z,19.80
2022-08-23T03:05:16.986Z,19.70
2022-08-23T03:07:45.838Z,19.60
2022-08-23T03:10:15.012Z,19.60
2022-08-23T03:12:48.422Z,19.50
2022-08-23T03:15:16.688Z,19.60
2022-08-23T03:17:45.016Z,19.40
2022-08-23T03:20:15.307Z,19.30
2022-08-23T03:22:48.337Z,19.30
2022-08-23T03:25:25.857Z,19.30
2022-08-23T03:28:09.520Z,19.30
2022-08-23T03:30:43.346Z,19.30
2022-08-23T03:33:12.776Z,19.30
2022-08-23T03:35:43.032Z,19.30
2022-08-23T03:38:13.955Z,19.30
2022-08-23T03:40:42.601Z,19.40
2022-08-23T03:43:11.284Z,19.40
2022-08-23T03:45:39.645Z,19.40
2022-08-23T03:48:09.166Z,19.60
2022-08-23T03:50:38.475Z,19.60
2022-08-23T03:53:09.048Z,19.50
2022-08-23T03:55:42.542Z,19.60
2022-08-23T03:58:13.296Z,19.50
2022-08-23T04:00:41.441Z,19.50
2022-08-23T04:03:09.919Z,19.60
2022-08-23T04:05:55.158Z,19.60
2022-08-23T04:08:33.239Z,19.60
2022-08-23T04:11:02.763Z,19.70
2022-08-23T04:13:30.965Z,19.60
2022-08-23T04:16:03.224Z,19.60
2022-08-23T04:18:32.582Z,19.60
2022-08-23T04:21:03.457Z,19.60
2022-08-23T04:23:33.109Z,19.70
2022-08-23T04:26:01.786Z,19.70
2022-08-23T04:28:33.719Z,19.70
2022-08-23T04:31:02.363Z,19.70
2022-08-23T04:33:34.043Z,19.80
2022-08-23T04:36:03.114Z,19.90
2022-08-23T04:38:32.998Z,19.90
2022-08-23T04:41:24.015Z,19.90
2022-08-23T04:43:56.372Z,19.90
2022-08-23T04:46:26.057Z,19.90
2022-08-23T04:48:56.070Z,20.00
2022-08-23T04:51:24.900Z,19.80
2022-08-23T04:53:55.566Z,19.70
2022-08-23T04:56:45.409Z,19.70
2022-08-23T04:59:21.219Z,19.60
2022-08-23T05:01:50.083Z,19.70
2022-08-23T05:04:18.707Z,19.70
2022-08-23T05:06:47.471Z,19.80
2022-08-23T05:09:20.568Z,19.80
2022-08-23T05:11:50.459Z,19.90
2022-08-23T05:14:19.429Z,19.90
2022-08-23T05:16:47.903Z,19.80
2022-08-23T05:19:16.236Z,20.00
2022-08-23T05:21:46.529Z,20.00
2022-08-23T05:24:17.015Z,20.10
2022-08-23T05:26:47.729Z,20.20
2022-08-23T05:29:15.870Z,20.00
2022-08-23T05:31:49.832Z,20.00
2022-08-23T05:34:22.597Z,19.90
2022-08-23T05:36:57.315Z,20.00
2022-08-23T05:39:36.740Z,20.10
2022-08-23T05:42:10.739Z,20.30
2022-08-23T05:44:39.044Z,20.30
2022-08-23T05:47:13.447Z,20.30
2022-08-23T05:49:55.848Z,20.50
2022-08-23T05:52:26.272Z,20.50
2022-08-23T05:54:55.826Z,20.70
2022-08-23T05:57:50.688Z,20.90
2022-08-23T06:00:18.934Z,20.90
2022-08-23T06:02:47.111Z,20.90
2022-08-23T06:05:16.228Z,20.90
2022-08-23T06:07:46.271Z,21.00
2022-08-23T06:10:16.560Z,21.00
2022-08-23T06:12:50.170Z,21.00
2022-08-23T06:15:18.617Z,21.10
2022-08-23T06:17:48.068Z,21.20
2022-08-23T06:20:16.835Z,21.20
2022-08-23T06:23:11.296Z,21.40
2022-08-23T06:25:42.986Z,21.30
2022-08-23T06:28:20.044Z,21.50
2022-08-23T06:30:55.874Z,21.60
2022-08-23T06:33:37.703Z,21.80
2022-08-23T06:36:26.917Z,21.80
2022-08-23T06:39:05.499Z,22.00
2022-08-23T06:42:00.791Z,22.00
2022-08-23T06:44:32.578Z,22.30
2022-08-23T06:47:19.892Z,22.20
2022-08-23T06:49:57.336Z,22.60
2022-08-23T06:52:53.232Z,22.50
2022-08-23T06:55:35.074Z,22.60
2022-08-23T06:58:20.138Z,22.60
2022-08-23T07:01:28.648Z,22.50
2022-08-23T07:04:09.767Z,22.70
2022-08-23T07:07:11.290Z,22.60
2022-08-23T07:09:40.309Z,22.60
2022-08-23T07:12:09.357Z,22.60
2022-08-23T07:14:43.092Z,22.60
2022-08-23T07:17:12.525Z,22.30
2022-08-23T07:19:41.667Z,22.40
2022-08-23T07:22:09.800Z,22.50
2022-08-23T07:24:38.582Z,22.50
2022-08-23T07:27:09.747Z,22.90
2022-08-23T07:30:02.601Z,23.00
2022-08-23T07:32:31.866Z,23.10
2022-08-23T07:35:07.135Z,23.40
2022-08-23T07:37:37.867Z,23.70
2022-08-23T07:40:08.947Z,23.70
2022-08-23T07:42:37.164Z,23.90
2022-08-23T07:45:10.063Z,24.10
2022-08-23T07:47:38.419Z,24.40
2022-08-23T07:50:09.252Z,24.00
2022-08-23T07:52:38.333Z,24.40
2022-08-23T07:55:07.699Z,24.80
2022-08-23T07:57:56.235Z,24.60
2022-08-23T08:00:36.470Z,24.80
2022-08-23T08:03:40.423Z,24.90
2022-08-23T08:06:22.828Z,25.10
2022-08-23T08:08:52.237Z,24.80
2022-08-23T08:11:22.553Z,24.60
2022-08-23T08:13:52.765Z,25.00
2022-08-23T08:16:25.561Z,24.80
2022-08-23T08:18:55.321Z,24.70
2022-08-23T08:21:42.954Z,24.90
2022-08-23T08:24:23.315Z,25.40
2022-08-23T08:26:55.736Z,25.30
2022-08-23T08:29:25.081Z,25.50
2022-08-23T08:31:54.701Z,25.80
2022-08-23T08:34:23.543Z,26.00
2022-08-23T08:36:53.853Z,25.70
2022-08-23T08:39:28.351Z,25.90
2022-08-23T08:42:14.357Z,25.70
2022-08-23T08:44:50.832Z,26.30
2022-08-23T08:47:33.835Z,26.40
2022-08-23T08:50:09.828Z,26.70
2022-08-23T08:52:42.285Z,26.80
2022-08-23T08:55:23.350Z,26.80
2022-08-23T08:57:54.993Z,26.90
2022-08-23T09:00:26.321Z,26.90
2022-08-23T09:02:57.418Z,27.10
2022-08-23T09:05:29.380Z,27.20
2022-08-23T09:08:12.702Z,27.00
2022-08-23T09:10:53.155Z,26.90
2022-08-23T09:13:46.382Z,27.40
2022-08-23T09:16:24.777Z,27.60
2022-08-23T09:18:55.276Z,28.00
2022-08-23T09:21:23.929Z,27.90
2022-08-23T09:24:00.337Z,27.60
2022-08-23T09:26:39.078Z,27.70
2022-08-23T09:29:18.986Z,28.00
2022-08-23T09:31:52.624Z,28.40
2022-08-23T09:34:38.408Z,28.50
2022-08-23T09:37:18.651Z,28.50
2022-08-23T09:39:49.687Z,29.60
2022-08-23T09:42:33.317Z,29.50
2022-08-23T09:45:02.101Z,29.30
2022-08-23T09:47:34.416Z,28.00
2022-08-23T09:50:19.184Z,28.30
2022-08-23T09:52:49.152Z,28.10
2022-08-23T09:55:31.839Z,27.80
2022-08-23T09:58:01.532Z,28.20
2022-08-23T10:00:33.986Z,28.60
2022-08-23T10:03:25.138Z,28.80
2022-08-23T10:06:01.998Z,28.90
2022-08-23T10:08:42.364Z,29.10
2022-08-23T10:11:18.858Z,29.10
2022-08-23T10:13:48.516Z,29.00
2022-08-23T10:16:29.459Z,29.00
2022-08-23T10:19:19.938Z,29.40
2022-08-23T10:21:57.448Z,30.20
2022-08-23T10:24:34.463Z,30.60
2022-08-23T10:27:35.351Z,30.30
2022-08-23T10:30:08.383Z,30.90
2022-08-23T10:32:48.812Z,30.70
2022-08-23T10:35:30.983Z,30.90
2022-08-23T10:38:34.291Z,30.20
2022-08-23T10:41:18.986Z,30.00
2022-08-23T10:43:54.589Z,30.10
2022-08-23T10:46:24.176Z,29.90
2022-08-23T10:48:55.997Z,30.00
2022-08-23T10:51:31.992Z,30.50
2022-08-23T10:54:09.056Z,30.80
2022-08-23T10:56:42.901Z,30.40
2022-08-23T10:59:20.850Z,30.60
2022-08-23T11:01:58.765Z,30.40
2022-08-23T11:04:34.239Z,30.20
2022-08-23T11:07:23.753Z,30.00
2022-08-23T11:10:10.038Z,30.30
2022-08-23T11:12:56.641Z,30.70
2022-08-23T11:15:33.434Z,30.90
2022-08-23T11:18:05.652Z,30.80
2022-08-23T11:21:00.871Z,30.30
2022-08-23T11:23:44.330Z,30.60
2022-08-23T11:27:07.353Z,30.50
2022-08-23T11:29:43.856Z,30.50
2022-08-23T11:32:43.159Z,30.30
2022-08-23T11:35:43.318Z,30.20
2022-08-23T11:38:17.220Z,30.30
2022-08-23T11:41:12.659Z,30.70
2022-08-23T11:43:44.231Z,30.90
2022-08-23T11:46:31.587Z,30.90
2022-08-23T11:49:31.961Z,30.80
2022-08-23T11:52:13.788Z,30.70
2022-08-23T11:55:05.498Z,30.80
2022-08-23T11:57:53.137Z,30.80
2022-08-23T12:00:29.460Z,30.70
2022-08-23T12:03:03.020Z,30.70
2022-08-23T12:06:13.183Z,30.70
2022-08-23T12:08:53.555Z,30.50
2022-08-23T12:11:22.737Z,30.60
2022-08-23T12:13:54.953Z,30.40
2022-08-23T12:16:49.665Z,30.50
2022-08-23T12:19:31.409Z,30.70
2022-08-23T12:22:07.901Z,30.80
2022-08-23T12:24:47.329Z,31.00
2022-08-23T12:27:28.453Z,31.30
2022-08-23T12:30:01.595Z,31.00
2022-08-23T12:32:37.341Z,31.10
2022-08-23T12:35:23.994Z,30.70
2022-08-23T12:37:59.353Z,30.90
2022-08-23T12:40:32.338Z,31.20
2022-08-23T12:43:08.003Z,31.50
2022-08-23T12:45:41.823Z,31.60
2022-08-23T12:48:15.544Z,31.50
2022-08-23T12:50:45.975Z,31.50
2022-08-23T12:53:17.385Z,31.30
2022-08-23T12:55:49.199Z,30.80
2022-08-23T12:58:29.822Z,30.50
2022-08-23T13:01:04.786Z,30.50
2022-08-23T13:03:38.745Z,30.30
2022-08-23T13:06:11.103Z,30.50
2022-08-23T13:08:43.545Z,30.70
2022-08-23T13:11:13.319Z,30.90
2022-08-23T13:13:44.214Z,31.10
2022-08-23T13:16:27.755Z,31.00
2022-08-23T13:19:10.312Z,30.90
2022-08-23T13:21:39.963Z,31.20
2022-08-23T13:24:38.413Z,31.30
2022-08-23T13:27:21.261Z,31.10
2022-08-23T13:29:55.674Z,31.20
2022-08-23T13:32:33.543Z,31.30
2022-08-23T13:35:30.655Z,31.20
2022-08-23T13:38:02.309Z,31.20
2022-08-23T13:40:33.376Z,31.30
2022-08-23T13:43:05.195Z,31.10
2022-08-23T13:45:46.934Z,31.00
2022-08-23T13:48:19.769Z,31.00
2022-08-23T13:50:49.423Z,31.10
2022-08-23T13:53:18.241Z,31.00
2022-08-23T13:55:50.311Z,30.80
2022-08-23T13:58:27.648Z,30.90
2022-08-23T14:00:58.936Z,31.00
2022-08-23T14:03:28.989Z,30.80
2022-08-23T14:05:58.730Z,30.50
2022-08-23T14:08:26.862Z,30.50
2022-08-23T14:10:54.981Z,30.70
2022-08-23T14:13:28.795Z,30.80
2022-08-23T14:21:39.041Z,30.00
2022-08-23T14:24:07.739Z,29.60
2022-08-23T14:26:36.331Z,29.40
2022-08-23T14:29:04.749Z,29.20
2022-08-23T14:31:33.350Z,29.00
2022-08-23T14:34:02.125Z,29.00
2022-08-23T14:36:30.916Z,28.90
2022-08-23T14:39:00.365Z,28.90
2022-08-23T14:41:30.223Z,28.80
2022-08-23T14:43:58.320Z,28.70
2022-08-23T14:46:26.488Z,28.70
2022-08-23T14:48:54.553Z,28.60
2022-08-23T14:51:27.336Z,28.60
2022-08-23T14:53:56.189Z,28.60
2022-08-23T14:56:26.162Z,28.50
2022-08-23T14:58:54.603Z,28.60
2022-08-23T15:01:23.116Z,28.60
2022-08-23T15:03:51.791Z,28.60
2022-08-23T15:06:21.926Z,28.60
2022-08-23T15:08:50.395Z,28.60
2022-08-23T15:14:08.250Z,28.80
2022-08-23T15:16:36.405Z,28.80
2022-08-23T15:19:05.528Z,28.80
2022-08-23T15:21:34.285Z,28.90
2022-08-23T15:24:02.600Z,29.00
2022-08-23T15:26:32.429Z,29.00
2022-08-23T15:29:01.601Z,29.00
2022-08-23T15:31:31.136Z,28.90
2022-08-23T15:33:59.644Z,28.90
2022-08-23T15:36:28.224Z,28.90
2022-08-23T15:38:56.275Z,28.90
2022-08-23T15:41:24.596Z,28.70
2022-08-23T15:43:52.729Z,28.60
2022-08-23T15:46:23.272Z,28.50
2022-08-23T15:48:57.038Z,28.40
2022-08-23T15:51:26.354Z,28.30
2022-08-23T15:53:54.503Z,28.30
2022-08-23T15:56:31.563Z,27.90
2022-08-23T15:58:59.731Z,27.50
2022-08-23T16:01:30.329Z,27.20
2022-08-23T16:04:02.125Z,26.90
2022-08-23T16:06:35.816Z,26.50
2022-08-23T16:09:07.121Z,26.00
2022-08-23T16:11:35.368Z,25.80
2022-08-23T16:14:03.432Z,25.60
2022-08-23T16:16:34.585Z,25.50
2022-08-23T16:19:04.239Z,25.40
2022-08-23T16:21:36.298Z,25.30
2022-08-23T16:24:04.974Z,25.20
2022-08-23T16:26:35.735Z,25.20
2022-08-23T16:29:06.566Z,25.20
2022-08-23T16:31:37.658Z,25.20
2022-08-23T16:34:10.083Z,25.10
2022-08-23T16:36:39.598Z,25.10
2022-08-23T16:39:08.333Z,25.10
2022-08-23T16:41:36.438Z,25.20
2022-08-23T16:44:05.294Z,25.30
2022-08-23T16:46:33.719Z,25.30
2022-08-23T16:49:02.508Z,25.20
2022-08-23T16:51:31.986Z,25.30
2022-08-23T16:54:02.709Z,25.10
2022-08-23T16:56:31.783Z,25.10
2022-08-23T16:59:00.466Z,25.10
2022-08-23T17:01:29.950Z,25.10
2022-08-23T17:03:58.123Z,25.10
2022-08-23T17:10:30.144Z,25.10
2022-08-23T17:12:59.118Z,25.10
2022-08-23T17:15:30.098Z,25.10
2022-08-23T17:17:58.557Z,25.10
2022-08-23T17:20:29.793Z,25.20
2022-08-23T17:22:58.301Z,25.20
2022-08-23T17:25:26.618Z,25.10
2022-08-23T17:27:56.793Z,25.10
2022-08-23T17:30:26.182Z,24.90
2022-08-23T17:32:54.417Z,24.70
2022-08-23T17:35:24.951Z,24.90
2022-08-23T17:37:53.398Z,24.70
2022-08-23T17:40:27.121Z,24.70
2022-08-23T17:42:57.326Z,24.40
2022-08-23T17:45:25.523Z,24.30
2022-08-23T17:47:53.751Z,24.20
2022-08-23T17:50:22.165Z,24.40
2022-08-23T17:52:51.169Z,24.00
2022-08-23T17:55:19.892Z,23.80
2022-08-23T17:57:49.251Z,23.80
2022-08-23T18:00:20.384Z,23.80
2022-08-23T18:02:48.530Z,23.90
2022-08-23T18:05:17.149Z,23.80
2022-08-23T18:07:45.370Z,23.80
2022-08-23T18:10:14.294Z,23.70
2022-08-23T18:12:43.021Z,23.60
2022-08-23T18:15:12.578Z,23.60
2022-08-23T18:17:42.189Z,23.50
2022-08-23T18:20:11.586Z,23.40
2022-08-23T18:22:40.082Z,23.50
2022-08-23T18:25:10.397Z,23.30
2022-08-23T18:27:55.955Z,23.30
2022-08-23T18:30:24.277Z,23.40
2022-08-23T18:32:53.639Z,23.30
2022-08-23T18:35:22.726Z,23.30
2022-08-23T18:37:51.480Z,23.30
2022-08-23T18:40:19.938Z,23.20
2022-08-23T18:42:48.637Z,23.30
2022-08-23T18:45:16.799Z,23.40
2022-08-23T18:47:47.612Z,23.50
2022-08-23T18:50:18.006Z,23.50
2022-08-23T18:52:46.311Z,23.20
2022-08-23T18:55:16.177Z,23.30
2022-08-23T18:57:44.539Z,23.10
2022-08-23T19:00:13.532Z,23.20
2022-08-23T19:02:41.897Z,23.30
2022-08-23T19:05:10.106Z,23.20
2022-08-23T19:07:39.523Z,23.20
2022-08-23T19:10:08.530Z,23.20
2022-08-23T19:12:37.133Z,23.10
2022-08-23T19:15:05.957Z,23.00
2022-08-23T19:17:34.776Z,23.20
2022-08-23T19:20:03.053Z,22.90
2022-08-23T19:22:31.176Z,22.70
2022-08-23T19:25:01.065Z,22.60
2022-08-23T19:27:29.296Z,22.70
2022-08-23T19:29:57.407Z,22.70
2022-08-23T19:32:26.957Z,22.70
2022-08-23T19:34:55.149Z,22.80
2022-08-23T19:37:23.352Z,22.80
2022-08-23T19:39:52.127Z,22.90
2022-08-23T19:42:21.744Z,22.90
2022-08-23T19:44:50.152Z,22.80
2022-08-23T19:47:19.581Z,22.60
2022-08-23T19:49:49.482Z,22.50
2022-08-23T19:52:17.626Z,22.70
2022-08-23T19:54:45.657Z,22.70
2022-08-23T19:57:14.007Z,22.80
2022-08-23T19:59:43.641Z,22.70
2022-08-23T20:02:13.928Z,22.60
2022-08-23T20:04:42.432Z,22.60
2022-08-23T20:07:10.533Z,22.60
2022-08-23T20:09:38.667Z,22.70
2022-08-23T20:12:07.821Z,22.60
2022-08-23T20:14:36.399Z,22.50
2022-08-23T20:17:07.532Z,22.50
2022-08-23T20:19:36.376Z,22.50
2022-08-23T20:22:23.158Z,22.60
2022-08-23T20:24:52.943Z,22.40
2022-08-23T20:27:25.377Z,22.40
2022-08-23T20:29:59.863Z,22.50
2022-08-23T20:32:29.823Z,22.40
2022-08-23T20:34:57.938Z,22.30
2022-08-23T20:37:26.412Z,22.30
2022-08-23T20:39:54.831Z,22.20
2022-08-23T20:42:23.037Z,22.30
2022-08-23T20:44:51.347Z,22.40
2022-08-23T20:47:19.512Z,22.10
2022-08-23T20:49:49.085Z,22.10
2022-08-23T20:52:18.354Z,22.20
2022-08-23T20:54:46.827Z,22.20
2022-08-23T20:57:15.026Z,22.10
2022-08-23T20:59:44.924Z,22.20
2022-08-23T21:02:13.478Z,22.00
2022-08-23T21:04:41.572Z,22.00
2022-08-23T21:07:10.975Z,22.00
2022-08-23T21:09:39.498Z,22.00
2022-08-23T21:12:07.964Z,21.90
2022-08-23T21:14:36.312Z,21.80
2022-08-23T21:17:04.512Z,21.90
2022-08-23T21:19:32.631Z,21.80
2022-08-23T21:22:01.123Z,21.80
2022-08-23T21:24:30.602Z,21.80
2022-08-23T21:26:59.168Z,21.70
2022-08-23T21:29:28.026Z,21.70
2022-08-23T21:31:56.019Z,21.60
2022-08-23T21:34:24.105Z,21.60
2022-08-23T21:36:52.490Z,21.60
2022-08-23T21:39:20.794Z,21.50
2022-08-23T21:41:51.058Z,21.50
2022-08-23T21:44:21.540Z,21.60
2022-08-23T21:46:49.825Z,21.70
2022-08-23T21:49:18.079Z,21.50
2022-08-23T21:51:46.809Z,21.30
2022-08-23T21:54:15.713Z,21.30
2022-08-23T21:56:43.897Z,21.20
2022-08-23T21:59:16.693Z,21.30
2022-08-23T22:01:45.259Z,21.30
2022-08-23T22:04:15.448Z,21.20
2022-08-23T22:06:45.738Z,21.20
2022-08-23T22:09:17.115Z,21.10
2022-08-23T22:11:49.353Z,21.20
2022-08-23T22:14:31.305Z,21.20
2022-08-23T22:17:00.500Z,21.20
2022-08-23T22:19:28.879Z,21.10
2022-08-23T22:21:56.959Z,21.10
2022-08-23T22:24:26.305Z,21.10
2022-08-23T22:26:55.022Z,21.00
2022-08-23T22:29:25.336Z,21.00
2022-08-23T22:31:53.866Z,20.90
2022-08-23T22:34:22.394Z,20.90
2022-08-23T22:36:52.406Z,20.80
2022-08-23T22:39:21.201Z,20.90
2022-08-23T22:41:49.468Z,20.90
2022-08-23T22:44:18.457Z,20.90
2022-08-23T22:46:48.418Z,21.00
2022-08-23T22:49:16.527Z,21.00
2022-08-23T22:51:44.625Z,21.00
2022-08-23T22:54:14.453Z,21.20
2022-08-23T22:56:44.110Z,21.20
2022-08-23T22:59:13.299Z,21.10
2022-08-23T23:01:46.766Z,21.10
2022-08-23T23:04:19.046Z,21.20
2022-08-23T23:06:49.100Z,21.00
2022-08-23T23:09:17.368Z,21.00
2022-08-23T23:11:46.572Z,20.90
2022-08-23T23:14:15.581Z,20.80
2022-08-23T23:16:44.163Z,20.80
2022-08-23T23:19:29.910Z,20.80
2022-08-23T23:21:59.638Z,20.70
2022-08-23T23:24:30.413Z,20.70
2022-08-23T23:26:59.146Z,20.60
2022-08-23T23:29:28.002Z,20.60
2022-08-23T23:31:57.143Z,20.70
2022-08-23T23:34:26.114Z,20.80
2022-08-23T23:36:55.912Z,20.70
2022-08-23T23:39:25.967Z,20.70
2022-08-23T23:41:54.456Z,20.70
2022-08-23T23:44:29.249Z,20.80
2022-08-23T23:47:00.809Z,20.70
2022-08-23T23:49:32.024Z,20.60
2022-08-23T23:52:01.003Z,20.60
2022-08-23T23:54:31.575Z,20.70
2022-08-23T23:56:59.841Z,20.70
2022-08-23T23:59:28.484Z,20.80
